createdAt,value
2018-04-17T00:00:12.630Z,16.24
2018-04-17T00:02:52.624Z,15.89
2018-04-17T00:05:30.703Z,16.05
2018-04-17T00:08:08.404Z,15.89
2018-04-17T00:10:47.646Z,16.05
2018-04-17T00:13:26.401Z,16.02
2018-04-17T00:16:04.256Z,15.90
2018-04-17T00:18:43.236Z,16.04
2018-04-17T00:21:22.074Z,15.99
2018-04-17T00:23:59.732Z,15.90
2018-04-17T00:26:38.062Z,16.06
2018-04-17T00:29:17.991Z,16.07
2018-04-17T00:31:56.076Z,16.20
2018-04-17T00:34:35.428Z,16.34
2018-04-17T00:37:13.254Z,16.51
2018-04-17T00:39:51.818Z,16.20
2018-04-17T00:42:30.891Z,16.19
2018-04-17T00:45:09.913Z,16.57
2018-04-17T00:47:47.932Z,16.47
2018-04-17T00:50:27.329Z,16.03
2018-04-17T00:53:14.197Z,17.60
2018-04-17T00:55:52.503Z,17.46
2018-04-17T00:58:31.535Z,16.46
2018-04-17T01:01:10.097Z,16.00
2018-04-17T01:03:48.161Z,15.95
2018-04-17T01:06:26.239Z,16.00
2018-04-17T01:09:08.523Z,17.22
2018-04-17T01:11:46.554Z,17.29
2018-04-17T01:14:24.905Z,16.81
2018-04-17T01:17:02.737Z,16.51
2018-04-17T01:19:40.410Z,16.39
2018-04-17T01:22:19.713Z,17.15
2018-04-17T01:24:57.531Z,17.10
2018-04-17T01:27:36.559Z,16.93
2018-04-17T01:30:14.641Z,17.54
2018-04-17T01:32:53.388Z,17.54
2018-04-17T01:35:32.080Z,17.97
2018-04-17T01:38:10.361Z,18.14
2018-04-17T01:40:48.948Z,18.83
2018-04-17T01:43:26.788Z,18.57
2018-04-17T01:46:05.674Z,17.57
2018-04-17T01:48:43.681Z,17.06
2018-04-17T01:51:21.624Z,17.12
2018-04-17T01:54:01.680Z,17.13
2018-04-17T01:56:39.575Z,17.43
2018-04-17T01:59:17.768Z,16.82
2018-04-17T02:01:57.263Z,17.39
2018-04-17T02:04:35.359Z,17.14
2018-04-17T02:07:14.542Z,16.98
2018-04-17T02:09:54.022Z,17.45
2018-04-17T02:12:33.108Z,17.62
2018-04-17T02:15:12.079Z,18.70
2018-04-17T02:17:50.860Z,17.31
2018-04-17T02:20:30.142Z,17.19
2018-04-17T02:23:08.622Z,17.15
2018-04-17T02:25:49.113Z,17.17
2018-04-17T02:28:28.145Z,17.44
2018-04-17T02:31:06.361Z,17.07
2018-04-17T02:33:46.485Z,16.92
2018-04-17T02:36:25.176Z,17.32
2018-04-17T02:39:03.181Z,17.62
2018-04-17T02:41:41.215Z,18.23
2018-04-17T02:44:19.998Z,17.47
2018-04-17T02:46:58.945Z,17.31
2018-04-17T02:49:36.968Z,17.33
2018-04-17T02:52:15.542Z,17.12
2018-04-17T02:54:54.629Z,17.44
2018-04-17T02:57:33.009Z,17.32
2018-04-17T03:00:10.805Z,17.66
2018-04-17T03:02:51.664Z,17.09
2018-04-17T03:05:29.942Z,17.14
2018-04-17T03:08:07.998Z,17.09
2018-04-17T03:10:47.173Z,17.19
2018-04-17T03:13:25.441Z,17.33
2018-04-17T03:16:04.465Z,17.05
2018-04-17T03:18:42.779Z,16.98
2018-04-17T03:21:20.876Z,16.94
2018-04-17T03:23:59.713Z,17.38
2018-04-17T03:26:38.087Z,16.77
2018-04-17T03:29:17.666Z,16.97
2018-04-17T03:31:55.800Z,17.08
2018-04-17T03:34:36.665Z,17.17
2018-04-17T03:37:14.547Z,16.91
2018-04-17T03:39:53.695Z,16.67
2018-04-17T03:42:34.559Z,17.26
2018-04-17T03:45:13.459Z,17.02
2018-04-17T03:47:52.419Z,16.80
2018-04-17T03:50:30.994Z,16.93
2018-04-17T03:53:08.883Z,17.00
2018-04-17T03:55:47.207Z,16.83
2018-04-17T03:58:25.409Z,16.72
2018-04-17T04:01:03.691Z,16.58
2018-04-17T04:03:41.743Z,16.80
2018-04-17T04:06:21.655Z,17.31
2018-04-17T04:08:59.980Z,17.35
2018-04-17T04:11:42.816Z,17.20
2018-04-17T04:14:21.566Z,16.84
2018-04-17T04:18:18.275Z,17.15
2018-04-17T04:22:15.320Z,17.09
2018-04-17T04:25:16.969Z,16.55
2018-04-17T04:27:56.762Z,16.38
2018-04-17T04:30:44.570Z,16.75
2018-04-17T04:33:22.711Z,16.94
2018-04-17T04:36:03.257Z,16.82
2018-04-17T04:38:43.597Z,16.66
2018-04-17T04:41:23.708Z,16.22
2018-04-17T04:44:02.564Z,16.40
2018-04-17T04:46:46.211Z,17.35
2018-04-17T04:49:24.955Z,16.83
2018-04-17T04:52:03.945Z,17.75
2018-04-17T04:54:46.606Z,17.43
2018-04-17T04:57:24.518Z,16.48
2018-04-17T05:00:05.148Z,16.93
2018-04-17T05:02:46.104Z,16.21
2018-04-17T05:05:25.106Z,17.39
2018-04-17T05:08:07.207Z,16.93
2018-04-17T05:10:45.134Z,17.60
2018-04-17T05:13:25.983Z,17.01
2018-04-17T05:16:06.265Z,16.20
2018-04-17T05:18:43.997Z,16.29
2018-04-17T05:21:23.260Z,16.05
2018-04-17T05:24:01.184Z,16.18
2018-04-17T05:26:39.450Z,16.53
2018-04-17T05:29:17.167Z,16.16
2018-04-17T05:31:54.934Z,15.54
2018-04-17T05:34:32.574Z,15.39
2018-04-17T05:37:12.510Z,15.38
2018-04-17T05:39:51.445Z,15.69
2018-04-17T05:42:29.931Z,15.79
2018-04-17T05:45:09.964Z,15.33
2018-04-17T05:47:49.398Z,15.76
2018-04-17T05:50:28.531Z,15.25
2018-04-17T05:53:09.409Z,15.49
2018-04-17T05:55:47.094Z,15.34
2018-04-17T05:58:25.023Z,15.85
2018-04-17T06:01:04.124Z,16.13
2018-04-17T06:03:41.800Z,15.27
2018-04-17T06:06:19.423Z,15.20
2018-04-17T06:08:59.055Z,15.98
2018-04-17T06:11:36.728Z,16.30
2018-04-17T06:14:14.221Z,15.33
2018-04-17T06:16:54.718Z,15.80
2018-04-17T06:19:34.991Z,14.99
2018-04-17T06:22:14.057Z,15.15
2018-04-17T06:24:55.500Z,15.40
2018-04-17T06:27:36.629Z,14.92
2018-04-17T06:30:16.755Z,15.01
2018-04-17T06:32:55.228Z,15.04
2018-04-17T06:35:37.834Z,15.23
2018-04-17T06:38:16.105Z,15.11
2018-04-17T06:41:00.797Z,15.18
2018-04-17T06:43:39.402Z,15.33
2018-04-17T06:46:17.102Z,14.81
2018-04-17T06:48:57.485Z,15.41
2018-04-17T06:51:36.615Z,14.73
2018-04-17T06:54:15.895Z,14.64
2018-04-17T06:56:56.455Z,14.70
2018-04-17T06:59:35.723Z,14.54
2018-04-17T07:02:14.713Z,14.54
2018-04-17T07:04:54.101Z,14.51
2018-04-17T07:07:31.792Z,14.71
2018-04-17T07:13:00.330Z,14.38
2018-04-17T07:15:40.260Z,14.42
2018-04-17T07:18:22.224Z,14.73
2018-04-17T07:21:02.045Z,14.37
2018-04-17T07:23:43.945Z,14.04
2018-04-17T07:26:23.454Z,14.32
2018-04-17T07:29:04.696Z,14.49
2018-04-17T07:31:47.686Z,14.22
2018-04-17T07:34:25.516Z,14.02
2018-04-17T07:37:05.198Z,14.11
2018-04-17T07:39:43.563Z,13.97
2018-04-17T07:42:23.022Z,13.93
2018-04-17T07:45:03.360Z,14.05
2018-04-17T07:47:50.283Z,14.24
2018-04-17T07:50:29.062Z,14.15
2018-04-17T07:53:07.918Z,13.72
2018-04-17T07:55:47.827Z,14.01
2018-04-17T07:58:25.670Z,13.47
2018-04-17T08:01:05.493Z,13.78
2018-04-17T08:03:48.763Z,14.32
2018-04-17T08:06:26.215Z,14.21
2018-04-17T08:09:06.217Z,14.53
2018-04-17T08:11:46.916Z,14.12
2018-04-17T08:14:26.031Z,16.83
2018-04-17T08:17:07.196Z,16.14
2018-04-17T08:19:48.058Z,14.40
2018-04-17T08:22:27.264Z,15.40
2018-04-17T08:25:10.237Z,16.57
2018-04-17T08:27:51.042Z,15.37
2018-04-17T08:30:29.068Z,15.32
2018-04-17T08:33:09.879Z,15.02
2018-04-17T08:35:50.365Z,14.65
2018-04-17T08:38:31.326Z,14.69
2018-04-17T08:41:12.050Z,15.51
2018-04-17T08:43:50.689Z,13.71
2018-04-17T08:46:33.944Z,13.92
2018-04-17T08:49:11.868Z,13.55
2018-04-17T08:51:51.421Z,14.65
2018-04-17T08:54:32.742Z,13.92
2018-04-17T08:57:12.673Z,13.60
2018-04-17T08:59:53.564Z,12.74
2018-04-17T09:02:32.939Z,13.05
2018-04-17T09:05:13.060Z,12.76
2018-04-17T09:07:58.108Z,13.30
2018-04-17T09:10:35.806Z,13.76
2018-04-17T09:13:18.220Z,15.95
2018-04-17T09:15:57.005Z,14.26
2018-04-17T09:21:22.592Z,12.91
2018-04-17T09:24:00.363Z,14.00
2018-04-17T09:26:41.006Z,13.42
2018-04-17T09:29:18.955Z,13.16
2018-04-17T09:32:02.546Z,12.71
2018-04-17T09:34:41.480Z,12.46
2018-04-17T09:37:19.518Z,11.57
2018-04-17T09:40:00.767Z,11.39
2018-04-17T09:42:39.177Z,12.01
2018-04-17T09:45:24.383Z,12.70
2018-04-17T09:48:03.226Z,13.33
2018-04-17T09:50:42.966Z,13.20
2018-04-17T09:53:23.744Z,14.26
2018-04-17T09:56:01.735Z,13.48
2018-04-17T09:58:40.624Z,13.36
2018-04-17T10:01:24.109Z,13.25
2018-04-17T10:04:05.294Z,13.53
2018-04-17T10:06:43.554Z,12.45
2018-04-17T10:09:25.790Z,11.98
2018-04-17T10:12:04.736Z,12.75
2018-04-17T10:14:44.366Z,12.98
2018-04-17T10:17:26.832Z,11.66
2018-04-17T10:20:05.131Z,10.97
2018-04-17T10:22:46.135Z,10.80
2018-04-17T10:25:24.850Z,9.52
2018-04-17T10:28:09.648Z,9.74
2018-04-17T10:30:47.397Z,9.71
2018-04-17T10:33:25.302Z,10.11
2018-04-17T10:36:08.244Z,10.59
2018-04-17T10:38:46.000Z,10.90
2018-04-17T10:41:24.663Z,11.80
2018-04-17T10:44:09.850Z,10.64
2018-04-17T10:46:48.545Z,9.71
2018-04-17T10:49:28.368Z,10.10
2018-04-17T10:52:09.358Z,11.87
2018-04-17T10:54:49.153Z,12.99
2018-04-17T10:57:33.340Z,12.32
2018-04-17T11:00:11.540Z,12.44
2018-04-17T11:02:52.667Z,11.44
2018-04-17T11:05:32.527Z,11.62
2018-04-17T11:08:10.524Z,11.99
2018-04-17T11:10:52.755Z,10.69
2018-04-17T11:13:32.988Z,10.13
2018-04-17T11:16:11.274Z,10.12
2018-04-17T11:18:54.108Z,9.89
2018-04-17T11:21:35.327Z,9.96
2018-04-17T11:24:16.381Z,10.90
2018-04-17T11:26:54.419Z,10.76
2018-04-17T11:29:35.929Z,10.64
2018-04-17T11:32:15.162Z,11.01
2018-04-17T11:34:53.147Z,11.66
2018-04-17T11:37:35.489Z,11.52
2018-04-17T11:40:14.344Z,11.71
2018-04-17T11:42:54.780Z,11.11
2018-04-17T11:45:38.705Z,10.76
2018-04-17T11:48:20.747Z,10.32
2018-04-17T11:50:59.032Z,10.28
2018-04-17T11:53:39.678Z,9.97
2018-04-17T11:56:17.545Z,10.44
2018-04-17T11:59:05.084Z,11.96
2018-04-17T12:01:51.044Z,11.52
2018-04-17T12:04:37.299Z,10.96
2018-04-17T12:07:18.352Z,10.20
2018-04-17T12:09:59.509Z,10.21
2018-04-17T12:12:39.769Z,9.92
2018-04-17T12:15:20.562Z,10.52
2018-04-17T12:17:59.483Z,10.55
2018-04-17T12:20:41.884Z,9.80
2018-04-17T12:23:20.548Z,10.99
2018-04-17T12:26:00.105Z,11.48
2018-04-17T12:28:42.681Z,10.40
2018-04-17T12:31:21.927Z,10.24
2018-04-17T12:34:00.901Z,10.30
2018-04-17T12:36:44.032Z,10.60
2018-04-17T12:39:22.590Z,10.37
2018-04-17T12:42:09.454Z,10.10
2018-04-17T12:44:59.071Z,9.94
2018-04-17T12:47:40.527Z,9.86
2018-04-17T12:50:22.051Z,8.89
2018-04-17T12:53:09.444Z,9.42
2018-04-17T12:55:48.275Z,8.67
2018-04-17T12:58:26.291Z,8.46
2018-04-17T13:01:08.669Z,9.26
2018-04-17T13:04:00.996Z,8.40
2018-04-17T13:06:50.098Z,8.45
2018-04-17T13:09:28.290Z,9.08
2018-04-17T13:12:08.436Z,8.43
2018-04-17T13:14:49.332Z,7.66
2018-04-17T13:17:28.361Z,8.32
2018-04-17T13:20:12.752Z,8.53
2018-04-17T13:22:54.075Z,9.33
2018-04-17T13:25:47.430Z,9.87
2018-04-17T13:28:26.967Z,9.33
2018-04-17T13:31:06.256Z,9.97
2018-04-17T13:33:54.116Z,9.59
2018-04-17T13:36:32.342Z,8.70
2018-04-17T13:39:12.009Z,10.00
2018-04-17T13:41:56.711Z,9.85
2018-04-17T13:44:47.696Z,9.23
2018-04-17T13:47:29.331Z,9.00
2018-04-17T13:50:11.090Z,8.97
2018-04-17T13:52:49.910Z,9.02
2018-04-17T13:55:29.768Z,8.12
2018-04-17T13:58:17.206Z,8.30
2018-04-17T14:00:54.927Z,8.50
2018-04-17T14:03:37.700Z,8.48
2018-04-17T14:06:16.121Z,8.11
2018-04-17T14:08:56.401Z,9.42
2018-04-17T14:11:34.237Z,9.49
2018-04-17T14:14:13.095Z,8.35
2018-04-17T14:16:56.643Z,8.03
2018-04-17T14:19:36.015Z,7.96
2018-04-17T14:22:14.310Z,7.54
2018-04-17T14:25:04.512Z,7.59
2018-04-17T14:27:53.931Z,7.94
2018-04-17T14:30:35.376Z,7.96
2018-04-17T14:33:15.378Z,8.08
2018-04-17T14:35:54.969Z,8.22
2018-04-17T14:38:35.172Z,8.20
2018-04-17T15:26:54.123Z,7.66
2018-04-17T15:29:32.053Z,7.77
2018-04-17T15:32:16.083Z,8.02
2018-04-17T15:34:56.359Z,7.90
2018-04-17T15:37:34.087Z,7.64
2018-04-17T15:40:16.125Z,8.27
2018-04-17T15:42:55.914Z,7.90
2018-04-17T15:45:42.107Z,8.41
2018-04-17T15:48:23.269Z,8.33
2018-04-17T15:51:02.796Z,7.88
2018-04-17T15:53:45.751Z,7.82
2018-04-17T15:56:23.611Z,8.15
2018-04-17T15:59:02.978Z,8.11
2018-04-17T16:01:48.501Z,8.08
2018-04-17T16:04:26.276Z,8.78
2018-04-17T16:07:04.550Z,8.20
2018-04-17T16:09:47.615Z,8.26
2018-04-17T16:12:27.441Z,8.57
2018-04-17T16:15:07.393Z,8.27
2018-04-17T16:17:47.248Z,8.68
2018-04-17T16:20:26.890Z,8.56
2018-04-17T16:23:09.291Z,8.41
2018-04-17T16:25:47.570Z,9.03
2018-04-17T16:28:26.757Z,9.08
2018-04-17T16:31:09.731Z,9.34
2018-04-17T16:33:48.510Z,8.54
2018-04-17T16:36:27.750Z,7.35
2018-04-17T16:39:07.106Z,7.14
2018-04-17T16:41:48.127Z,6.85
2018-04-17T16:44:28.595Z,7.00
2018-04-17T16:47:08.793Z,6.79
2018-04-17T16:49:48.340Z,7.23
2018-04-17T16:52:30.520Z,7.42
2018-04-17T16:55:10.759Z,7.51
2018-04-17T16:57:48.749Z,7.44
2018-04-17T17:00:28.446Z,7.57
2018-04-17T17:03:07.448Z,7.77
2018-04-17T17:05:46.765Z,8.39
2018-04-17T17:08:28.622Z,7.74
2018-04-17T17:11:08.612Z,8.03
2018-04-17T17:13:49.474Z,7.86
2018-04-17T17:16:30.580Z,8.15
2018-04-17T17:19:09.882Z,8.67
2018-04-17T17:21:50.847Z,8.76
2018-04-17T17:24:30.686Z,9.00
2018-04-17T17:27:13.239Z,9.03
2018-04-17T17:29:54.467Z,9.18
2018-04-17T17:32:35.883Z,9.66
2018-04-17T17:35:15.652Z,10.06
2018-04-17T17:37:55.283Z,10.11
2018-04-17T17:40:38.006Z,10.63
2018-04-17T17:43:18.005Z,10.24
2018-04-17T17:45:56.003Z,11.41
2018-04-17T17:48:38.890Z,11.48
2018-04-17T17:51:18.850Z,10.92
2018-04-17T17:53:58.373Z,10.96
2018-04-17T17:56:40.081Z,11.13
2018-04-17T17:59:18.097Z,10.82
2018-04-17T18:01:59.816Z,11.19
2018-04-17T18:04:38.744Z,11.09
2018-04-17T18:07:19.076Z,11.10
2018-04-17T18:10:00.562Z,10.96
2018-04-17T18:12:39.688Z,11.45
2018-04-17T18:15:22.212Z,11.71
2018-04-17T18:18:00.524Z,11.90
2018-04-17T18:20:40.424Z,12.02
2018-04-17T18:23:23.585Z,12.18
2018-04-17T18:26:01.541Z,12.21
2018-04-17T18:28:42.087Z,12.13
2018-04-17T18:31:23.258Z,13.16
2018-04-17T18:34:02.296Z,13.79
2018-04-17T18:36:43.904Z,13.34
2018-04-17T18:39:21.970Z,13.25
2018-04-17T18:42:00.607Z,13.57
2018-04-17T18:44:43.014Z,13.10
2018-04-17T18:47:22.682Z,13.03
2018-04-17T18:50:05.826Z,12.82
2018-04-17T18:52:44.553Z,14.05
2018-04-17T18:55:23.432Z,14.37
2018-04-17T18:58:04.675Z,13.52
2018-04-17T19:00:44.282Z,12.91
2018-04-17T19:03:22.064Z,13.20
2018-04-17T19:06:05.210Z,14.59
2018-04-17T19:08:45.342Z,14.56
2018-04-17T19:11:25.656Z,13.83
2018-04-17T19:14:04.722Z,14.34
2018-04-17T19:16:42.849Z,13.60
2018-04-17T19:19:20.854Z,13.80
2018-04-17T19:22:01.809Z,13.37
2018-04-17T19:24:40.673Z,13.22
2018-04-17T19:27:18.732Z,13.94
2018-04-17T19:30:01.359Z,13.91
2018-04-17T19:32:40.711Z,13.67
2018-04-17T19:35:20.230Z,13.86
2018-04-17T19:37:59.342Z,13.91
2018-04-17T19:40:37.913Z,13.77
2018-04-17T19:43:17.569Z,13.95
2018-04-17T19:45:56.045Z,13.92
2018-04-17T19:48:37.041Z,14.08
2018-04-17T19:51:14.840Z,13.82
2018-04-17T19:53:55.843Z,14.07
2018-04-17T19:56:34.600Z,14.09
2018-04-17T19:59:13.628Z,14.35
2018-04-17T20:01:54.533Z,14.77
2018-04-17T20:04:33.703Z,14.69
2018-04-17T20:07:12.480Z,14.73
2018-04-17T20:09:52.069Z,14.77
2018-04-17T20:12:31.315Z,14.75
2018-04-17T20:15:09.823Z,14.58
2018-04-17T20:17:48.923Z,14.56
2018-04-17T20:20:26.800Z,14.14
2018-04-17T20:23:05.861Z,14.62
2018-04-17T20:25:44.773Z,14.92
2018-04-17T20:28:23.272Z,14.90
2018-04-17T20:31:02.593Z,14.91
2018-04-17T20:33:41.811Z,15.34
2018-04-17T20:36:20.261Z,14.88
2018-04-17T20:38:59.278Z,14.71
2018-04-17T20:41:39.812Z,14.52
2018-04-17T20:44:18.210Z,14.64
2018-04-17T20:46:56.162Z,14.72
2018-04-17T20:49:36.427Z,14.52
2018-04-17T20:52:15.300Z,14.69
2018-04-17T20:54:54.331Z,14.99
2018-04-17T20:57:34.736Z,15.50
2018-04-17T21:00:15.106Z,15.14
2018-04-17T21:02:54.323Z,15.77
2018-04-17T21:05:33.090Z,15.53
2018-04-17T21:08:12.427Z,15.25
2018-04-17T21:10:51.276Z,15.30
2018-04-17T21:13:29.874Z,15.43
2018-04-17T21:16:08.307Z,15.82
2018-04-17T21:18:46.440Z,15.42
2018-04-17T21:21:26.602Z,15.11
2018-04-17T21:24:04.893Z,15.00
2018-04-17T21:26:43.115Z,15.05
2018-04-17T21:29:22.921Z,15.35
2018-04-17T21:32:00.854Z,15.35
2018-04-17T21:34:39.282Z,15.47
2018-04-17T21:37:17.801Z,15.89
2018-04-17T21:39:56.234Z,15.58
2018-04-17T21:42:34.542Z,15.25
2018-04-17T21:45:14.351Z,15.16
2018-04-17T21:47:53.858Z,15.07
2018-04-17T21:50:32.903Z,14.93
2018-04-17T21:53:11.526Z,14.81
2018-04-17T21:55:50.323Z,15.21
2018-04-17T21:58:28.506Z,15.61
2018-04-17T22:01:11.926Z,15.46
2018-04-17T22:03:50.759Z,15.80
2018-04-17T22:06:29.779Z,15.22
2018-04-17T22:09:12.597Z,15.05
2018-04-17T22:11:51.735Z,15.16
2018-04-17T22:14:30.777Z,15.04
2018-04-17T22:17:12.522Z,15.02
2018-04-17T22:19:51.465Z,15.06
2018-04-17T22:22:29.345Z,15.26
2018-04-17T22:25:13.573Z,15.42
2018-04-17T22:27:51.608Z,15.55
2018-04-17T22:30:29.788Z,15.63
2018-04-17T22:33:14.584Z,15.35
2018-04-17T22:35:53.466Z,15.57
2018-04-17T22:38:32.428Z,15.41
2018-04-17T22:41:14.262Z,15.18
2018-04-17T22:43:52.791Z,15.31
2018-04-17T22:46:32.908Z,15.17
2018-04-17T22:49:12.396Z,14.86
2018-04-17T22:51:51.067Z,15.17
2018-04-17T22:54:31.786Z,15.25
2018-04-17T22:57:11.543Z,15.18
2018-04-17T22:59:50.693Z,14.98
2018-04-17T23:02:29.893Z,15.08
2018-04-17T23:05:08.609Z,15.96
2018-04-17T23:07:48.781Z,15.81
2018-04-17T23:10:30.246Z,15.38
2018-04-17T23:13:09.205Z,100.00
2018-04-17T23:15:48.804Z,100.00
2018-04-17T23:18:27.656Z,100.00
2018-04-17T23:21:11.524Z,100.00
2018-04-17T23:23:50.328Z,100.00
2018-04-17T23:26:37.074Z,100.00
2018-04-17T23:29:16.786Z,100.00
2018-04-17T23:31:56.011Z,100.00
2018-04-17T23:34:37.228Z,100.00
2018-04-17T23:37:16.787Z,100.00
2018-04-17T23:40:00.344Z,100.00
2018-04-17T23:42:39.366Z,100.00
2018-04-17T23:45:17.634Z,100.00
2018-04-17T23:47:56.327Z,100.00
2018-04-17T23:50:35.220Z,100.00
2018-04-17T23:53:14.669Z,100.00
2018-04-17T23:55:53.029Z,15.88
2018-04-17T23:58:32.360Z,15.72
